sensor_id;sensor_type;location;lat;lon;timestamp;temperature;humidity
39493;DHT22;25176;51.060;3.720;2022-09-17T00:00:39;13.90;99.90
39493;DHT22;25176;51.060;3.720;2022-09-17T00:03:05;13.80;99.90
39493;DHT22;25176;51.060;3.720;2022-09-17T00:05:31;13.90;99.90
39493;DHT22;25176;51.060;3.720;2022-09-17T00:07:56;13.70;99.90
39493;DHT22;25176;51.060;3.720;2022-09-17T00:10:22;13.80;99.90
39493;DHT22;25176;51.060;3.720;2022-09-17T00:12:47;13.70;99.90
39493;DHT22;25176;51.060;3.720;2022-09-17T00:15:13;13.70;99.90
39493;DHT22;25176;51.060;3.720;2022-09-17T00:17:39;13.60;99.90
39493;DHT22;25176;51.060;3.720;2022-09-17T00:20:05;13.60;99.90
39493;DHT22;25176;51.060;3.720;2022-09-17T00:22:37;13.60;99.90
39493;DHT22;25176;51.060;3.720;2022-09-17T00:25:03;13.70;99.90
39493;DHT22;25176;51.060;3.720;2022-09-17T00:27:29;13.80;99.90
39493;DHT22;25176;51.060;3.720;2022-09-17T00:29:55;13.80;99.90
39493;DHT22;25176;51.060;3.720;2022-09-17T00:32:20;13.90;99.90
39493;DHT22;25176;51.060;3.720;2022-09-17T00:34:46;13.90;99.90
39493;DHT22;25176;51.060;3.720;2022-09-17T00:37:13;13.90;99.90
39493;DHT22;25176;51.060;3.720;2022-09-17T00:39:38;13.80;99.90
39493;DHT22;25176;51.060;3.720;2022-09-17T00:42:04;13.80;99.90
39493;DHT22;25176;51.060;3.720;2022-09-17T00:47:03;13.80;99.90
39493;DHT22;25176;51.060;3.720;2022-09-17T00:49:30;13.70;99.90
39493;DHT22;25176;51.060;3.720;2022-09-17T00:51:58;13.60;99.90
39493;DHT22;25176;51.060;3.720;2022-09-17T00:54:25;13.70;99.90
39493;DHT22;25176;51.060;3.720;2022-09-17T00:56:51;13.70;99.90
39493;DHT22;25176;51.060;3.720;2022-09-17T00:59:16;13.70;99.90
39493;DHT22;25176;51.060;3.720;2022-09-17T01:01:42;13.80;99.90
39493;DHT22;25176;51.060;3.720;2022-09-17T01:04:14;13.70;99.90
39493;DHT22;25176;51.060;3.720;2022-09-17T01:06:42;13.80;99.90
39493;DHT22;25176;51.060;3.720;2022-09-17T01:27:46;13.80;99.90
39493;DHT22;25176;51.060;3.720;2022-09-17T01:30:18;13.90;99.90
39493;DHT22;25176;51.060;3.720;2022-09-17T01:35:18;14.00;99.90
39493;DHT22;25176;51.060;3.720;2022-09-17T01:37:59;14.00;99.90
39493;DHT22;25176;51.060;3.720;2022-09-17T01:40:28;14.10;99.90
39493;DHT22;25176;51.060;3.720;2022-09-17T01:45:49;14.20;99.90
39493;DHT22;25176;51.060;3.720;2022-09-17T01:48:19;14.10;99.90
39493;DHT22;25176;51.060;3.720;2022-09-17T01:50:49;14.10;99.90
39493;DHT22;25176;51.060;3.720;2022-09-17T01:53:16;14.10;99.90
39493;DHT22;25176;51.060;3.720;2022-09-17T01:55:43;14.00;99.90
39493;DHT22;25176;51.060;3.720;2022-09-17T01:58:14;13.90;99.90
39493;DHT22;25176;51.060;3.720;2022-09-17T02:00:42;13.90;99.90
39493;DHT22;25176;51.060;3.720;2022-09-17T02:05:49;13.90;99.90
39493;DHT22;25176;51.060;3.720;2022-09-17T02:08:16;13.80;99.90
39493;DHT22;25176;51.060;3.720;2022-09-17T02:10:44;13.80;99.90
39493;DHT22;25176;51.060;3.720;2022-09-17T02:13:14;13.80;99.90
39493;DHT22;25176;51.060;3.720;2022-09-17T02:15:42;13.70;99.90
39493;DHT22;25176;51.060;3.720;2022-09-17T02:21:13;13.80;99.90
39493;DHT22;25176;51.060;3.720;2022-09-17T02:23:51;13.80;99.90
39493;DHT22;25176;51.060;3.720;2022-09-17T02:26:17;13.70;99.90
39493;DHT22;25176;51.060;3.720;2022-09-17T02:28:50;13.70;99.90
39493;DHT22;25176;51.060;3.720;2022-09-17T02:31:19;13.60;99.90
39493;DHT22;25176;51.060;3.720;2022-09-17T02:33:46;13.50;99.90
39493;DHT22;25176;51.060;3.720;2022-09-17T02:36:12;13.50;99.90
39493;DHT22;25176;51.060;3.720;2022-09-17T02:38:39;13.40;99.90
39493;DHT22;25176;51.060;3.720;2022-09-17T02:41:10;13.50;99.90
39493;DHT22;25176;51.060;3.720;2022-09-17T02:43:45;13.50;99.90
39493;DHT22;25176;51.060;3.720;2022-09-17T02:49:05;13.50;99.90
39493;DHT22;25176;51.060;3.720;2022-09-17T02:57:14;13.30;99.90
39493;DHT22;25176;51.060;3.720;2022-09-17T02:59:28;13.30;99.90
39493;DHT22;25176;51.060;3.720;2022-09-17T03:01:57;13.30;99.90
39493;DHT22;25176;51.060;3.720;2022-09-17T03:04:24;13.40;99.90
39493;DHT22;25176;51.060;3.720;2022-09-17T03:06:51;13.40;99.90
39493;DHT22;25176;51.060;3.720;2022-09-17T03:09:18;13.50;99.90
39493;DHT22;25176;51.060;3.720;2022-09-17T03:11:43;13.50;99.90
39493;DHT22;25176;51.060;3.720;2022-09-17T03:14:09;13.40;99.90
39493;DHT22;25176;51.060;3.720;2022-09-17T03:16:34;13.50;99.90
39493;DHT22;25176;51.060;3.720;2022-09-17T03:19:00;13.50;99.90
39493;DHT22;25176;51.060;3.720;2022-09-17T03:21:25;13.50;99.90
39493;DHT22;25176;51.060;3.720;2022-09-17T03:23:51;13.60;99.90
39493;DHT22;25176;51.060;3.720;2022-09-17T03:26:17;13.60;99.90
39493;DHT22;25176;51.060;3.720;2022-09-17T03:28:42;13.70;99.90
39493;DHT22;25176;51.060;3.720;2022-09-17T03:31:08;13.80;99.90
39493;DHT22;25176;51.060;3.720;2022-09-17T03:33:33;13.80;99.90
39493;DHT22;25176;51.060;3.720;2022-09-17T03:35:59;13.80;99.90
39493;DHT22;25176;51.060;3.720;2022-09-17T03:38:24;13.70;99.90
39493;DHT22;25176;51.060;3.720;2022-09-17T03:40:56;13.70;99.90
39493;DHT22;25176;51.060;3.720;2022-09-17T03:43:22;13.70;99.90
39493;DHT22;25176;51.060;3.720;2022-09-17T03:45:47;13.60;99.90
39493;DHT22;25176;51.060;3.720;2022-09-17T03:48:13;13.70;99.90
39493;DHT22;25176;51.060;3.720;2022-09-17T03:50:38;13.70;99.90
39493;DHT22;25176;51.060;3.720;2022-09-17T03:53:04;13.60;99.90
39493;DHT22;25176;51.060;3.720;2022-09-17T03:55:30;13.70;99.90
39493;DHT22;25176;51.060;3.720;2022-09-17T03:57:55;13.70;99.90
39493;DHT22;25176;51.060;3.720;2022-09-17T04:00:21;13.80;99.90
39493;DHT22;25176;51.060;3.720;2022-09-17T04:02:46;13.80;99.90
39493;DHT22;25176;51.060;3.720;2022-09-17T04:05:12;13.80;99.90
39493;DHT22;25176;51.060;3.720;2022-09-17T04:07:38;13.90;99.90
39493;DHT22;25176;51.060;3.720;2022-09-17T04:10:04;13.50;99.90
39493;DHT22;25176;51.060;3.720;2022-09-17T04:12:30;13.40;99.90
39493;DHT22;25176;51.060;3.720;2022-09-17T04:14:56;13.30;99.90
39493;DHT22;25176;51.060;3.720;2022-09-17T04:17:21;13.30;99.90
39493;DHT22;25176;51.060;3.720;2022-09-17T04:19:47;13.30;99.90
39493;DHT22;25176;51.060;3.720;2022-09-17T04:22:12;13.40;99.90
39493;DHT22;25176;51.060;3.720;2022-09-17T04:24:38;13.30;99.90
39493;DHT22;25176;51.060;3.720;2022-09-17T04:27:03;13.40;99.90
39493;DHT22;25176;51.060;3.720;2022-09-17T04:29:29;13.40;99.90
39493;DHT22;25176;51.060;3.720;2022-09-17T04:31:55;13.40;99.90
39493;DHT22;25176;51.060;3.720;2022-09-17T04:34:20;13.40;99.90
39493;DHT22;25176;51.060;3.720;2022-09-17T04:36:46;13.40;99.90
39493;DHT22;25176;51.060;3.720;2022-09-17T04:39:11;13.40;99.90
39493;DHT22;25176;51.060;3.720;2022-09-17T04:41:37;13.40;99.90
39493;DHT22;25176;51.060;3.720;2022-09-17T04:44:02;13.60;99.90
39493;DHT22;25176;51.060;3.720;2022-09-17T04:46:28;13.60;99.90
39493;DHT22;25176;51.060;3.720;2022-09-17T04:48:53;13.60;99.90
39493;DHT22;25176;51.060;3.720;2022-09-17T04:51:19;13.70;99.90
39493;DHT22;25176;51.060;3.720;2022-09-17T04:53:44;13.60;99.90
39493;DHT22;25176;51.060;3.720;2022-09-17T04:56:10;13.60;99.90
39493;DHT22;25176;51.060;3.720;2022-09-17T04:58:35;13.40;99.90
39493;DHT22;25176;51.060;3.720;2022-09-17T05:01:01;13.40;99.90
39493;DHT22;25176;51.060;3.720;2022-09-17T05:03:26;13.40;99.90
39493;DHT22;25176;51.060;3.720;2022-09-17T05:05:52;13.30;99.90
39493;DHT22;25176;51.060;3.720;2022-09-17T05:08:17;13.30;99.90
39493;DHT22;25176;51.060;3.720;2022-09-17T05:10:42;13.30;99.90
39493;DHT22;25176;51.060;3.720;2022-09-17T05:13:08;13.30;99.90
39493;DHT22;25176;51.060;3.720;2022-09-17T05:15:33;13.30;99.90
39493;DHT22;25176;51.060;3.720;2022-09-17T05:17:59;13.30;99.90
39493;DHT22;25176;51.060;3.720;2022-09-17T05:20:25;13.30;99.90
39493;DHT22;25176;51.060;3.720;2022-09-17T05:22:50;13.40;99.90
39493;DHT22;25176;51.060;3.720;2022-09-17T05:25:17;13.40;99.90
39493;DHT22;25176;51.060;3.720;2022-09-17T05:27:43;13.40;99.90
39493;DHT22;25176;51.060;3.720;2022-09-17T05:30:09;13.40;99.90
39493;DHT22;25176;51.060;3.720;2022-09-17T05:32:36;13.40;99.90
39493;DHT22;25176;51.060;3.720;2022-09-17T05:35:02;13.40;99.90
39493;DHT22;25176;51.060;3.720;2022-09-17T05:37:28;13.50;99.90
39493;DHT22;25176;51.060;3.720;2022-09-17T05:39:53;13.60;99.90
39493;DHT22;25176;51.060;3.720;2022-09-17T05:42:19;13.60;99.90
39493;DHT22;25176;51.060;3.720;2022-09-17T05:44:44;13.60;99.90
39493;DHT22;25176;51.060;3.720;2022-09-17T05:47:10;13.50;99.90
39493;DHT22;25176;51.060;3.720;2022-09-17T05:49:35;13.50;99.90
39493;DHT22;25176;51.060;3.720;2022-09-17T05:52:01;13.40;99.90
39493;DHT22;25176;51.060;3.720;2022-09-17T05:54:28;13.60;99.90
39493;DHT22;25176;51.060;3.720;2022-09-17T05:56:53;13.60;99.90
39493;DHT22;25176;51.060;3.720;2022-09-17T05:59:19;13.60;99.90
39493;DHT22;25176;51.060;3.720;2022-09-17T06:01:44;13.70;99.90
39493;DHT22;25176;51.060;3.720;2022-09-17T06:04:10;13.60;99.90
39493;DHT22;25176;51.060;3.720;2022-09-17T06:06:35;13.60;99.90
39493;DHT22;25176;51.060;3.720;2022-09-17T06:09:03;13.70;99.90
39493;DHT22;25176;51.060;3.720;2022-09-17T06:11:29;13.80;99.90
39493;DHT22;25176;51.060;3.720;2022-09-17T06:13:54;13.70;99.90
39493;DHT22;25176;51.060;3.720;2022-09-17T06:16:20;13.70;99.90
39493;DHT22;25176;51.060;3.720;2022-09-17T06:18:46;13.70;99.90
39493;DHT22;25176;51.060;3.720;2022-09-17T06:21:12;13.70;99.90
39493;DHT22;25176;51.060;3.720;2022-09-17T06:23:37;13.80;99.90
39493;DHT22;25176;51.060;3.720;2022-09-17T06:26:03;13.60;99.90
39493;DHT22;25176;51.060;3.720;2022-09-17T06:28:29;13.60;99.90
39493;DHT22;25176;51.060;3.720;2022-09-17T06:30:59;13.60;99.90
39493;DHT22;25176;51.060;3.720;2022-09-17T06:33:24;13.60;99.90
39493;DHT22;25176;51.060;3.720;2022-09-17T06:36:00;13.60;99.90
39493;DHT22;25176;51.060;3.720;2022-09-17T06:38:27;13.70;99.90
39493;DHT22;25176;51.060;3.720;2022-09-17T06:40:53;13.60;99.90
39493;DHT22;25176;51.060;3.720;2022-09-17T06:43:19;13.60;99.90
39493;DHT22;25176;51.060;3.720;2022-09-17T06:46:00;13.70;99.90
39493;DHT22;25176;51.060;3.720;2022-09-17T06:48:27;13.50;99.90
39493;DHT22;25176;51.060;3.720;2022-09-17T06:50:53;13.60;99.90
39493;DHT22;25176;51.060;3.720;2022-09-17T06:53:19;13.70;99.90
39493;DHT22;25176;51.060;3.720;2022-09-17T06:55:45;13.70;99.90
39493;DHT22;25176;51.060;3.720;2022-09-17T06:58:10;13.70;99.90
39493;DHT22;25176;51.060;3.720;2022-09-17T07:00:36;13.80;99.90
39493;DHT22;25176;51.060;3.720;2022-09-17T07:03:01;13.90;99.90
39493;DHT22;25176;51.060;3.720;2022-09-17T07:05:27;14.00;99.90
39493;DHT22;25176;51.060;3.720;2022-09-17T07:07:53;13.90;99.90
39493;DHT22;25176;51.060;3.720;2022-09-17T07:10:19;13.90;99.90
39493;DHT22;25176;51.060;3.720;2022-09-17T07:12:44;14.00;99.90
39493;DHT22;25176;51.060;3.720;2022-09-17T07:15:10;14.20;99.90
39493;DHT22;25176;51.060;3.720;2022-09-17T07:17:36;14.40;99.90
39493;DHT22;25176;51.060;3.720;2022-09-17T07:20:04;14.40;99.90
39493;DHT22;25176;51.060;3.720;2022-09-17T07:22:29;14.70;99.90
39493;DHT22;25176;51.060;3.720;2022-09-17T07:24:55;14.90;99.90
39493;DHT22;25176;51.060;3.720;2022-09-17T07:27:20;15.20;99.90
39493;DHT22;25176;51.060;3.720;2022-09-17T07:29:46;15.20;99.90
39493;DHT22;25176;51.060;3.720;2022-09-17T07:32:11;14.80;99.90
39493;DHT22;25176;51.060;3.720;2022-09-17T07:34:37;14.50;99.90
39493;DHT22;25176;51.060;3.720;2022-09-17T07:37:02;14.40;99.90
39493;DHT22;25176;51.060;3.720;2022-09-17T07:39:28;14.20;99.90
39493;DHT22;25176;51.060;3.720;2022-09-17T07:41:53;14.40;99.90
39493;DHT22;25176;51.060;3.720;2022-09-17T07:44:19;14.50;99.90
39493;DHT22;25176;51.060;3.720;2022-09-17T07:46:46;14.50;99.90
39493;DHT22;25176;51.060;3.720;2022-09-17T07:49:11;14.70;99.90
39493;DHT22;25176;51.060;3.720;2022-09-17T07:51:37;15.40;99.90
39493;DHT22;25176;51.060;3.720;2022-09-17T07:54:02;17.50;99.90
39493;DHT22;25176;51.060;3.720;2022-09-17T07:56:28;21.40;98.30
39493;DHT22;25176;51.060;3.720;2022-09-17T07:58:54;23.80;92.30
39493;DHT22;25176;51.060;3.720;2022-09-17T08:01:20;24.80;87.50
39493;DHT22;25176;51.060;3.720;2022-09-17T08:03:47;25.60;80.90
39493;DHT22;25176;51.060;3.720;2022-09-17T08:06:13;25.50;78.00
39493;DHT22;25176;51.060;3.720;2022-09-17T08:08:39;23.50;80.30
39493;DHT22;25176;51.060;3.720;2022-09-17T08:11:09;22.50;83.10
39493;DHT22;25176;51.060;3.720;2022-09-17T08:13:35;20.90;86.50
39493;DHT22;25176;51.060;3.720;2022-09-17T08:16:01;19.90;90.50
39493;DHT22;25176;51.060;3.720;2022-09-17T08:18:27;21.70;88.30
39493;DHT22;25176;51.060;3.720;2022-09-17T08:20:56;23.50;84.70
39493;DHT22;25176;51.060;3.720;2022-09-17T08:23:22;24.60;81.10
39493;DHT22;25176;51.060;3.720;2022-09-17T08:25:51;28.30;74.50
39493;DHT22;25176;51.060;3.720;2022-09-17T08:28:17;30.60;67.50
39493;DHT22;25176;51.060;3.720;2022-09-17T08:30:42;31.00;61.90
39493;DHT22;25176;51.060;3.720;2022-09-17T08:33:08;30.50;60.10
39493;DHT22;25176;51.060;3.720;2022-09-17T08:35:33;29.30;59.70
39493;DHT22;25176;51.060;3.720;2022-09-17T08:37:58;28.30;60.70
39493;DHT22;25176;51.060;3.720;2022-09-17T08:40:24;28.20;61.80
39493;DHT22;25176;51.060;3.720;2022-09-17T08:42:55;26.90;62.60
39493;DHT22;25176;51.060;3.720;2022-09-17T08:45:24;25.50;65.40
39493;DHT22;25176;51.060;3.720;2022-09-17T08:47:51;24.90;67.30
39493;DHT22;25176;51.060;3.720;2022-09-17T08:57:41;21.30;74.80
39493;DHT22;25176;51.060;3.720;2022-09-17T09:00:16;20.40;76.60
39493;DHT22;25176;51.060;3.720;2022-09-17T09:05:31;18.40;85.20
39493;DHT22;25176;51.060;3.720;2022-09-17T09:13:11;17.20;91.60
39493;DHT22;25176;51.060;3.720;2022-09-17T09:15:43;17.00;92.40
39493;DHT22;25176;51.060;3.720;2022-09-17T09:20:53;16.70;94.10
39493;DHT22;25176;51.060;3.720;2022-09-17T09:26:18;16.50;96.50
39493;DHT22;25176;51.060;3.720;2022-09-17T09:29:04;16.20;97.60
39493;DHT22;25176;51.060;3.720;2022-09-17T09:34:00;15.80;99.90
39493;DHT22;25176;51.060;3.720;2022-09-17T09:36:27;15.60;99.90
39493;DHT22;25176;51.060;3.720;2022-09-17T09:39:00;15.60;99.90
39493;DHT22;25176;51.060;3.720;2022-09-17T09:41:35;15.60;99.90
39493;DHT22;25176;51.060;3.720;2022-09-17T09:44:08;15.50;99.90
39493;DHT22;25176;51.060;3.720;2022-09-17T09:52:32;15.20;99.90
39493;DHT22;25176;51.060;3.720;2022-09-17T10:00:42;15.30;99.90
39493;DHT22;25176;51.060;3.720;2022-09-17T10:03:21;15.50;99.90
39493;DHT22;25176;51.060;3.720;2022-09-17T10:08:18;16.40;99.90
39493;DHT22;25176;51.060;3.720;2022-09-17T10:10:54;16.90;99.90
39493;DHT22;25176;51.060;3.720;2022-09-17T10:13:20;17.90;99.90
39493;DHT22;25176;51.060;3.720;2022-09-17T10:15:46;18.40;98.70
39493;DHT22;25176;51.060;3.720;2022-09-17T10:20:58;17.70;99.20
39493;DHT22;25176;51.060;3.720;2022-09-17T10:23:26;17.40;99.90
39493;DHT22;25176;51.060;3.720;2022-09-17T10:25:52;16.80;99.90
39493;DHT22;25176;51.060;3.720;2022-09-17T10:31:23;16.20;99.90
39493;DHT22;25176;51.060;3.720;2022-09-17T10:36:14;17.30;99.90
39493;DHT22;25176;51.060;3.720;2022-09-17T10:38:43;17.10;99.90
39493;DHT22;25176;51.060;3.720;2022-09-17T10:41:17;16.90;99.90
39493;DHT22;25176;51.060;3.720;2022-09-17T10:43:43;16.80;99.90
39493;DHT22;25176;51.060;3.720;2022-09-17T10:46:11;16.70;99.90
39493;DHT22;25176;51.060;3.720;2022-09-17T10:48:40;16.30;99.90
39493;DHT22;25176;51.060;3.720;2022-09-17T10:51:07;16.20;99.90
39493;DHT22;25176;51.060;3.720;2022-09-17T11:06:16;16.80;99.90
39493;DHT22;25176;51.060;3.720;2022-09-17T11:11:35;17.10;99.90
39493;DHT22;25176;51.060;3.720;2022-09-17T11:14:12;17.40;99.90
39493;DHT22;25176;51.060;3.720;2022-09-17T11:19:20;17.40;99.90
39493;DHT22;25176;51.060;3.720;2022-09-17T11:21:55;17.30;99.90
39493;DHT22;25176;51.060;3.720;2022-09-17T11:24:33;17.70;99.90
39493;DHT22;25176;51.060;3.720;2022-09-17T11:27:04;17.90;99.90
39493;DHT22;25176;51.060;3.720;2022-09-17T11:29:42;18.00;99.90
39493;DHT22;25176;51.060;3.720;2022-09-17T11:35:02;17.60;98.50
39493;DHT22;25176;51.060;3.720;2022-09-17T11:37:34;17.40;98.80
39493;DHT22;25176;51.060;3.720;2022-09-17T11:42:38;17.20;99.10
39493;DHT22;25176;51.060;3.720;2022-09-17T11:45:11;17.50;99.40
39493;DHT22;25176;51.060;3.720;2022-09-17T11:47:44;17.40;99.50
39493;DHT22;25176;51.060;3.720;2022-09-17T11:50:15;17.50;98.40
39493;DHT22;25176;51.060;3.720;2022-09-17T11:52:45;17.50;98.20
39493;DHT22;25176;51.060;3.720;2022-09-17T11:57:46;16.90;98.30
39493;DHT22;25176;51.060;3.720;2022-09-17T12:00:14;16.50;98.50
39493;DHT22;25176;51.060;3.720;2022-09-17T12:02:50;16.40;97.80
39493;DHT22;25176;51.060;3.720;2022-09-17T12:05:33;16.40;97.40
39493;DHT22;25176;51.060;3.720;2022-09-17T12:08:14;16.70;96.60
39493;DHT22;25176;51.060;3.720;2022-09-17T12:15:56;17.50;94.70
39493;DHT22;25176;51.060;3.720;2022-09-17T12:20:56;17.30;95.40
39493;DHT22;25176;51.060;3.720;2022-09-17T12:23:35;17.40;95.50
39493;DHT22;25176;51.060;3.720;2022-09-17T12:26:06;17.40;95.90
39493;DHT22;25176;51.060;3.720;2022-09-17T12:28:35;17.50;96.20
39493;DHT22;25176;51.060;3.720;2022-09-17T12:31:09;17.50;96.10
39493;DHT22;25176;51.060;3.720;2022-09-17T12:33:37;17.40;96.50
39493;DHT22;25176;51.060;3.720;2022-09-17T12:51:53;17.20;95.60
39493;DHT22;25176;51.060;3.720;2022-09-17T12:57:10;17.50;95.30
39493;DHT22;25176;51.060;3.720;2022-09-17T12:59:40;16.80;97.70
39493;DHT22;25176;51.060;3.720;2022-09-17T13:02:14;16.20;99.90
39493;DHT22;25176;51.060;3.720;2022-09-17T13:12:45;15.90;99.90
39493;DHT22;25176;51.060;3.720;2022-09-17T13:15:29;16.50;99.90
39493;DHT22;25176;51.060;3.720;2022-09-17T13:20:33;17.40;99.90
39493;DHT22;25176;51.060;3.720;2022-09-17T13:23:02;17.40;99.20
39493;DHT22;25176;51.060;3.720;2022-09-17T13:25:28;17.30;99.60
39493;DHT22;25176;51.060;3.720;2022-09-17T13:28:05;17.10;99.70
39493;DHT22;25176;51.060;3.720;2022-09-17T13:30:53;17.00;99.90
39493;DHT22;25176;51.060;3.720;2022-09-17T13:36:03;17.10;99.90
39493;DHT22;25176;51.060;3.720;2022-09-17T13:38:49;16.90;99.90
39493;DHT22;25176;51.060;3.720;2022-09-17T13:41:18;16.70;99.90
39493;DHT22;25176;51.060;3.720;2022-09-17T13:43:44;16.50;99.90
39493;DHT22;25176;51.060;3.720;2022-09-17T13:46:12;16.50;99.90
39493;DHT22;25176;51.060;3.720;2022-09-17T13:48:42;16.40;99.90
39493;DHT22;25176;51.060;3.720;2022-09-17T13:54:10;16.50;99.90
39493;DHT22;25176;51.060;3.720;2022-09-17T13:56:37;16.60;99.90
39493;DHT22;25176;51.060;3.720;2022-09-17T13:59:06;16.70;99.90
39493;DHT22;25176;51.060;3.720;2022-09-17T14:06:56;16.70;99.00
39493;DHT22;25176;51.060;3.720;2022-09-17T14:09:30;16.70;98.10
39493;DHT22;25176;51.060;3.720;2022-09-17T14:11:56;16.30;99.10
39493;DHT22;25176;51.060;3.720;2022-09-17T14:14:45;16.40;99.10
39493;DHT22;25176;51.060;3.720;2022-09-17T14:17:14;16.10;98.70
39493;DHT22;25176;51.060;3.720;2022-09-17T14:19:58;15.90;99.70
39493;DHT22;25176;51.060;3.720;2022-09-17T14:22:24;15.90;99.90
39493;DHT22;25176;51.060;3.720;2022-09-17T14:24:50;15.80;99.90
39493;DHT22;25176;51.060;3.720;2022-09-17T14:37:41;15.90;99.90
39493;DHT22;25176;51.060;3.720;2022-09-17T14:40:08;16.00;99.90
39493;DHT22;25176;51.060;3.720;2022-09-17T14:42:35;16.10;99.90
39493;DHT22;25176;51.060;3.720;2022-09-17T14:45:02;16.20;99.90
39493;DHT22;25176;51.060;3.720;2022-09-17T14:47:29;16.30;99.90
39493;DHT22;25176;51.060;3.720;2022-09-17T14:49:54;16.50;99.90
39493;DHT22;25176;51.060;3.720;2022-09-17T14:52:27;16.50;99.90
39493;DHT22;25176;51.060;3.720;2022-09-17T14:57:54;16.20;99.90
39493;DHT22;25176;51.060;3.720;2022-09-17T15:00:24;16.10;99.90
39493;DHT22;25176;51.060;3.720;2022-09-17T15:02:53;16.00;99.90
39493;DHT22;25176;51.060;3.720;2022-09-17T15:05:24;15.90;99.90
39493;DHT22;25176;51.060;3.720;2022-09-17T15:08:02;16.20;99.90
39493;DHT22;25176;51.060;3.720;2022-09-17T15:10:29;16.10;99.90
39493;DHT22;25176;51.060;3.720;2022-09-17T15:12:55;16.00;99.90
39493;DHT22;25176;51.060;3.720;2022-09-17T15:15:23;16.00;99.90
39493;DHT22;25176;51.060;3.720;2022-09-17T15:17:50;16.00;99.90
39493;DHT22;25176;51.060;3.720;2022-09-17T15:20:21;16.10;99.90
39493;DHT22;25176;51.060;3.720;2022-09-17T15:22:49;16.00;99.90
39493;DHT22;25176;51.060;3.720;2022-09-17T15:25:21;15.90;99.90
39493;DHT22;25176;51.060;3.720;2022-09-17T15:27:50;15.80;99.90
39493;DHT22;25176;51.060;3.720;2022-09-17T15:30:19;15.70;99.90
39493;DHT22;25176;51.060;3.720;2022-09-17T15:32:55;15.60;99.90
39493;DHT22;25176;51.060;3.720;2022-09-17T15:37:50;15.30;99.90
39493;DHT22;25176;51.060;3.720;2022-09-17T15:40:30;15.20;99.90
39493;DHT22;25176;51.060;3.720;2022-09-17T15:43:15;15.20;99.90
39493;DHT22;25176;51.060;3.720;2022-09-17T15:45:41;15.10;99.90
39493;DHT22;25176;51.060;3.720;2022-09-17T15:50:58;15.20;99.90
39493;DHT22;25176;51.060;3.720;2022-09-17T15:58:28;15.50;99.90
39493;DHT22;25176;51.060;3.720;2022-09-17T16:08:46;15.30;99.90
39493;DHT22;25176;51.060;3.720;2022-09-17T16:11:12;15.30;99.90
39493;DHT22;25176;51.060;3.720;2022-09-17T16:13:37;15.20;99.90
39493;DHT22;25176;51.060;3.720;2022-09-17T16:16:03;15.20;99.90
39493;DHT22;25176;51.060;3.720;2022-09-17T16:18:28;15.30;99.90
39493;DHT22;25176;51.060;3.720;2022-09-17T16:20:54;15.50;99.90
39493;DHT22;25176;51.060;3.720;2022-09-17T16:23:19;15.40;99.90
39493;DHT22;25176;51.060;3.720;2022-09-17T16:25:45;15.50;99.90
39493;DHT22;25176;51.060;3.720;2022-09-17T16:28:12;15.50;99.90
39493;DHT22;25176;51.060;3.720;2022-09-17T16:30:39;15.60;99.90
39493;DHT22;25176;51.060;3.720;2022-09-17T16:33:05;15.60;99.90
39493;DHT22;25176;51.060;3.720;2022-09-17T16:35:31;15.70;99.90
39493;DHT22;25176;51.060;3.720;2022-09-17T16:37:56;15.80;99.90
39493;DHT22;25176;51.060;3.720;2022-09-17T16:40:22;16.00;99.90
39493;DHT22;25176;51.060;3.720;2022-09-17T16:42:49;16.00;99.90
39493;DHT22;25176;51.060;3.720;2022-09-17T16:45:14;16.00;99.90
39493;DHT22;25176;51.060;3.720;2022-09-17T16:47:40;16.00;99.90
39493;DHT22;25176;51.060;3.720;2022-09-17T16:50:07;16.10;99.90
39493;DHT22;25176;51.060;3.720;2022-09-17T16:52:33;16.00;99.90
39493;DHT22;25176;51.060;3.720;2022-09-17T16:54:59;16.00;99.90
39493;DHT22;25176;51.060;3.720;2022-09-17T16:57:24;15.80;99.90
39493;DHT22;25176;51.060;3.720;2022-09-17T16:59:50;15.70;99.90
39493;DHT22;25176;51.060;3.720;2022-09-17T17:02:16;15.60;99.90
39493;DHT22;25176;51.060;3.720;2022-09-17T17:04:41;15.60;99.90
39493;DHT22;25176;51.060;3.720;2022-09-17T17:07:06;15.60;99.90
39493;DHT22;25176;51.060;3.720;2022-09-17T17:09:32;15.40;99.90
39493;DHT22;25176;51.060;3.720;2022-09-17T17:11:57;15.20;99.90
39493;DHT22;25176;51.060;3.720;2022-09-17T17:14:23;15.20;99.90
39493;DHT22;25176;51.060;3.720;2022-09-17T17:16:48;15.10;99.90
39493;DHT22;25176;51.060;3.720;2022-09-17T17:19:14;15.10;99.90
39493;DHT22;25176;51.060;3.720;2022-09-17T17:21:39;15.30;99.90
39493;DHT22;25176;51.060;3.720;2022-09-17T17:24:05;15.20;99.90
39493;DHT22;25176;51.060;3.720;2022-09-17T17:26:31;15.20;99.90
39493;DHT22;25176;51.060;3.720;2022-09-17T17:28:57;15.20;99.90
39493;DHT22;25176;51.060;3.720;2022-09-17T17:31:23;15.10;99.90
39493;DHT22;25176;51.060;3.720;2022-09-17T17:33:48;15.10;99.90
39493;DHT22;25176;51.060;3.720;2022-09-17T17:36:13;15.00;99.90
39493;DHT22;25176;51.060;3.720;2022-09-17T17:38:39;14.90;99.90
39493;DHT22;25176;51.060;3.720;2022-09-17T17:41:11;14.80;99.90
39493;DHT22;25176;51.060;3.720;2022-09-17T17:43:38;14.80;99.90
39493;DHT22;25176;51.060;3.720;2022-09-17T17:46:04;14.90;99.90
39493;DHT22;25176;51.060;3.720;2022-09-17T17:48:29;14.90;99.90
39493;DHT22;25176;51.060;3.720;2022-09-17T17:50:59;14.80;99.90
39493;DHT22;25176;51.060;3.720;2022-09-17T17:53:25;14.80;99.90
39493;DHT22;25176;51.060;3.720;2022-09-17T17:55:57;14.80;99.90
39493;DHT22;25176;51.060;3.720;2022-09-17T17:58:23;14.70;99.90
39493;DHT22;25176;51.060;3.720;2022-09-17T18:00:49;14.70;99.90
39493;DHT22;25176;51.060;3.720;2022-09-17T18:03:14;14.70;99.90
39493;DHT22;25176;51.060;3.720;2022-09-17T18:05:39;14.70;99.90
39493;DHT22;25176;51.060;3.720;2022-09-17T18:08:05;14.60;99.90
39493;DHT22;25176;51.060;3.720;2022-09-17T18:10:30;14.60;99.90
39493;DHT22;25176;51.060;3.720;2022-09-17T18:12:56;14.60;99.90
39493;DHT22;25176;51.060;3.720;2022-09-17T18:15:21;14.70;99.90
39493;DHT22;25176;51.060;3.720;2022-09-17T18:17:47;14.60;99.90
39493;DHT22;25176;51.060;3.720;2022-09-17T18:20:14;14.70;99.90
39493;DHT22;25176;51.060;3.720;2022-09-17T18:22:40;14.60;99.90
39493;DHT22;25176;51.060;3.720;2022-09-17T18:25:05;14.70;99.90
39493;DHT22;25176;51.060;3.720;2022-09-17T18:27:31;14.70;99.90
39493;DHT22;25176;51.060;3.720;2022-09-17T18:29:57;14.80;99.90
39493;DHT22;25176;51.060;3.720;2022-09-17T18:32:22;14.90;99.90
39493;DHT22;25176;51.060;3.720;2022-09-17T18:34:47;14.80;99.90
39493;DHT22;25176;51.060;3.720;2022-09-17T18:37:13;14.80;99.90
39493;DHT22;25176;51.060;3.720;2022-09-17T18:39:38;14.80;99.90
39493;DHT22;25176;51.060;3.720;2022-09-17T18:42:04;14.90;99.90
39493;DHT22;25176;51.060;3.720;2022-09-17T18:44:29;14.90;99.90